Time;durP1;ratioP1;P1;durP2;ratioP2;P2;SDS_P1;SDS_P2;PMS_P1;PMS_P2;Temp;Humidity;BMP_temperature;BMP_pressure;BME280_temperature;BME280_humidity;BME280_pressure;Samples;Min_cycle;Max_cycle;Signal;HPM_P1;HPM_P2
2021/12/09 00:01:00;;;;;;;55.85;30.75;;;128.00;1894.40;;;;;;5093524;28;20582;-65
2021/12/09 00:03:28;;;;;;;47.55;27.42;;;128.00;1843.20;;;;;;5082783;28;20028;-67
2021/12/09 00:05:56;;;;;;;42.65;24.50;;;128.00;1792.00;;;;;;5092936;28;20074;-64
2021/12/09 00:08:24;;;;;;;45.67;25.83;;;128.00;1792.00;;;;;;5087145;28;20077;-66
2021/12/09 00:10:51;;;;;;;46.28;24.90;;;103.20;1766.40;;;;;;5073381;28;20025;-65
2021/12/09 00:13:16;;;;;;;44.80;24.45;;;103.20;1766.40;;;;;;5073304;28;20016;-67
2021/12/09 00:15:42;;;;;;;45.60;25.88;;;103.20;1792.00;;;;;;5076518;28;20036;-62
2021/12/09 00:18:08;;;;;;;43.20;24.52;;;103.20;1792.00;;;;;;5093024;28;20044;-66
2021/12/09 00:20:34;;;;;;;44.50;24.85;;;103.20;1792.00;;;;;;5093018;28;20026;-68
2021/12/09 00:22:59;;;;;;;43.15;24.45;;;103.20;1792.00;;;;;;5093292;28;20051;-76
2021/12/09 00:25:25;;;;;;;44.25;24.33;;;103.30;1792.00;;;;;;5093499;28;20024;-75
2021/12/09 00:27:52;;;;;;;43.95;24.40;;;103.20;1792.00;;;;;;5092973;28;20865;-74
2021/12/09 00:30:18;;;;;;;44.85;25.17;;;103.30;1868.80;;;;;;5093459;28;20024;-64
2021/12/09 00:32:43;;;;;;;41.85;24.23;;;128.00;1920.00;;;;;;5093326;28;20016;-67
2021/12/09 00:35:14;;;;;;;39.17;22.50;;;128.10;1920.00;;;;;;5093394;28;20089;-67
2021/12/09 00:37:51;;;;;;;39.97;23.30;;;128.20;1868.80;;;;;;5094123;28;20481;-66
2021/12/09 00:40:17;;;;;;;39.67;21.67;;;128.30;1843.20;;;;;;5096797;28;20496;-67
2021/12/09 00:42:43;;;;;;;38.30;22.23;;;128.30;1817.60;;;;;;5096478;28;20044;-66
2021/12/09 00:45:09;;;;;;;37.67;22.27;;;128.30;1766.40;;;;;;5097017;28;20032;-66
2021/12/09 00:47:34;;;;;;;37.00;20.83;;;128.10;1792.00;;;;;;5096896;28;20016;-66
2021/12/09 00:50:00;;;;;;;40.75;22.02;;;128.00;1792.00;;;;;;5096786;28;20061;-66
2021/12/09 00:52:27;;;;;;;36.50;20.13;;;128.00;1792.00;;;;;;5096885;28;20028;-66
2021/12/09 00:54:55;;;;;;;42.38;22.95;;;103.30;1792.00;;;;;;5096637;28;20495;-65
2021/12/09 00:57:22;;;;;;;35.03;21.25;;;103.30;1792.00;;;;;;5096616;28;20020;-63
2021/12/09 00:59:48;;;;;;;39.17;21.92;;;103.20;1766.40;;;;;;5096503;28;20419;-64
2021/12/09 01:02:14;;;;;;;35.28;20.35;;;103.20;1766.40;;;;;;5096445;28;20020;-64
2021/12/09 01:04:41;;;;;;;35.03;20.10;;;103.10;1766.40;;;;;;5077999;28;20205;-64
2021/12/09 01:07:08;;;;;;;36.92;21.02;;;103.20;1843.20;;;;;;5096459;28;20031;-64
2021/12/09 01:09:34;;;;;;;37.20;21.10;;;103.20;1868.80;;;;;;5096472;28;20028;-64
2021/12/09 01:12:00;;;;;;;31.15;19.50;;;128.00;1868.80;;;;;;5096385;28;20024;-66
2021/12/09 01:14:25;;;;;;;38.20;20.85;;;128.10;1843.20;;;;;;5096194;28;20078;-64
2021/12/09 01:16:51;;;;;;;34.25;19.02;;;128.00;1792.00;;;;;;5096062;28;20127;-64
2021/12/09 01:19:18;;;;;;;30.95;19.13;;;128.00;1792.00;;;;;;5096315;28;20057;-64
2021/12/09 01:21:44;;;;;;;33.30;19.38;;;128.00;1766.40;;;;;;5096270;28;20108;-64
2021/12/09 01:24:10;;;;;;;33.38;19.63;;;103.30;1740.80;;;;;;5096280;28;20048;-65
2021/12/09 01:26:36;;;;;;;31.25;18.10;;;103.20;1766.40;;;;;;5096061;28;20099;-63
2021/12/09 01:29:10;;;;;;;33.17;18.60;;;103.30;1792.00;;;;;;5096162;28;20063;-66
2021/12/09 01:31:38;;;;;;;31.10;18.30;;;103.30;1766.40;;;;;;5095981;28;20351;-62
2021/12/09 01:34:05;;;;;;;31.02;18.13;;;103.30;1766.40;;;;;;5096079;28;20062;-62
2021/12/09 01:36:33;;;;;;;32.00;17.67;;;103.20;1766.40;;;;;;5095886;28;20040;-61
2021/12/09 01:39:00;;;;;;;33.38;17.58;;;103.20;1766.40;;;;;;5095854;28;20034;-61
2021/12/09 01:41:26;;;;;;;32.03;18.70;;;103.20;1817.60;;;;;;5095904;28;20020;-61
2021/12/09 01:43:52;;;;;;;29.23;17.90;;;103.30;1894.40;;;;;;5094143;28;20055;-61
2021/12/09 01:46:22;;;;;;;31.95;18.05;;;103.30;1868.80;;;;;;5095697;28;20024;-61
2021/12/09 01:48:50;;;;;;;29.23;16.83;;;128.00;1868.80;;;;;;5095206;28;20024;-61
2021/12/09 01:51:17;;;;;;;25.80;15.18;;;128.00;1792.00;;;;;;5095620;28;20019;-61
2021/12/09 01:53:44;;;;;;;31.15;18.98;;;128.10;1792.00;;;;;;5095604;28;20012;-61
2021/12/09 01:56:20;;;;;;;35.63;19.42;;;128.00;1766.40;;;;;;5095376;28;20031;-61
2021/12/09 01:58:46;;;;;;;25.42;15.15;;;103.30;1740.80;;;;;;5095561;28;20099;-61
2021/12/09 02:01:12;;;;;;;34.90;18.90;;;103.30;1766.40;;;;;;5095278;28;20028;-63
2021/12/09 02:03:38;;;;;;;39.47;20.45;;;103.20;1766.40;;;;;;5095493;28;20024;-64
2021/12/09 02:06:04;;;;;;;32.47;18.80;;;103.20;1766.40;;;;;;5095586;28;20030;-64
2021/12/09 02:08:30;;;;;;;28.27;16.63;;;103.20;1766.40;;;;;;5095283;28;20380;-63
2021/12/09 02:10:56;;;;;;;29.35;16.30;;;103.20;1766.40;;;;;;5095226;28;20099;-63
2021/12/09 02:13:22;;;;;;;25.90;15.07;;;103.20;1766.40;;;;;;5095253;28;20028;-63
2021/12/09 02:15:48;;;;;;;27.95;16.60;;;103.20;1792.00;;;;;;5095249;28;20107;-65
2021/12/09 02:18:15;;;;;;;29.52;16.00;;;103.20;1817.60;;;;;;5095258;28;20027;-64
2021/12/09 02:20:41;;;;;;;26.15;15.45;;;128.00;1894.40;;;;;;5095045;28;20024;-65
2021/12/09 02:23:11;;;;;;;23.30;14.43;;;128.10;1868.80;;;;;;5095039;28;20031;-67
2021/12/09 02:25:44;;;;;;;24.75;14.85;;;128.20;1843.20;;;;;;5094811;28;20357;-62
2021/12/09 02:28:13;;;;;;;23.10;14.40;;;128.30;1817.60;;;;;;5094872;28;20024;-62
2021/12/09 02:30:39;;;;;;;23.20;13.65;;;128.30;1792.00;;;;;;5095088;28;20099;-62
2021/12/09 02:33:05;;;;;;;22.65;13.07;;;128.30;1766.40;;;;;;5095044;28;20477;-62
2021/12/09 02:35:31;;;;;;;21.33;13.95;;;128.20;1766.40;;;;;;5094716;28;20047;-65
2021/12/09 02:37:57;;;;;;;20.55;14.05;;;128.10;1792.00;;;;;;5094725;28;20024;-63
2021/12/09 02:40:23;;;;;;;23.85;13.88;;;128.10;1792.00;;;;;;5094648;28;20398;-62
2021/12/09 02:42:48;;;;;;;22.10;13.52;;;128.10;1792.00;;;;;;5094518;28;20194;-62
2021/12/09 02:45:15;;;;;;;19.65;12.07;;;128.00;1792.00;;;;;;5094471;28;20042;-61
2021/12/09 02:47:41;;;;;;;19.85;12.40;;;128.10;1792.00;;;;;;5094433;28;20085;-64
2021/12/09 02:50:08;;;;;;;24.08;14.38;;;128.00;1792.00;;;;;;5094458;28;20016;-62
2021/12/09 02:52:34;;;;;;;20.02;13.15;;;128.00;1817.60;;;;;;5094382;28;20020;-64
2021/12/09 02:54:59;;;;;;;22.10;13.68;;;128.10;1868.80;;;;;;5094307;28;20035;-66
2021/12/09 02:57:26;;;;;;;20.67;13.23;;;128.20;1868.80;;;;;;5094604;28;20027;-66
2021/12/09 02:59:51;;;;;;;21.10;12.18;;;128.30;1843.20;;;;;;5094395;28;20032;-66
2021/12/09 03:02:19;;;;;;;20.30;12.70;;;128.40;1817.60;;;;;;5093301;28;20381;-66
2021/12/09 03:04:51;;;;;;;21.90;12.45;;;128.40;1792.00;;;;;;5094194;28;20053;-64
2021/12/09 03:07:25;;;;;;;21.92;13.07;;;128.40;1766.40;;;;;;5094099;28;20027;-64
2021/12/09 03:09:55;;;;;;;19.25;11.75;;;128.30;1766.40;;;;;;5094097;28;20088;-64
2021/12/09 03:12:33;;;;;;;19.27;11.80;;;128.30;1766.40;;;;;;5094050;28;20028;-64
2021/12/09 03:15:00;;;;;;;22.52;12.15;;;128.20;1792.00;;;;;;5094008;28;20036;-64
2021/12/09 03:17:27;;;;;;;18.50;11.60;;;128.20;1792.00;;;;;;5094165;28;20066;-65
2021/12/09 03:19:53;;;;;;;21.85;12.63;;;128.20;1792.00;;;;;;5094040;28;20052;-65
2021/12/09 03:22:19;;;;;;;22.38;11.25;;;128.30;1792.00;;;;;;5093871;28;20039;-65
2021/12/09 03:24:46;;;;;;;19.13;11.95;;;128.20;1792.00;;;;;;5075802;28;20458;-64
2021/12/09 03:27:12;;;;;;;20.60;12.57;;;128.30;1792.00;;;;;;5094033;28;20020;-65
2021/12/09 03:29:39;;;;;;;20.45;12.93;;;128.30;1843.20;;;;;;5093980;28;20046;-65
2021/12/09 03:32:08;;;;;;;20.63;12.48;;;128.50;1868.80;;;;;;5093681;28;20022;-65
2021/12/09 03:34:36;;;;;;;16.55;10.65;;;128.60;1817.60;;;;;;5093651;28;20024;-64
2021/12/09 03:37:06;;;;;;;20.15;11.98;;;128.70;1817.60;;;;;;5094008;28;20028;-64
2021/12/09 03:39:34;;;;;;;20.55;11.48;;;128.70;1766.40;;;;;;5093841;28;20489;-64
2021/12/09 03:42:00;;;;;;;20.10;11.27;;;128.70;1740.80;;;;;;5093973;28;20516;-65
2021/12/09 03:44:28;;;;;;;17.98;10.77;;;128.70;1740.80;;;;;;5093699;28;20020;-65
2021/12/09 03:46:56;;;;;;;15.68;10.63;;;128.60;1740.80;;;;;;5093891;28;20020;-66
2021/12/09 03:49:24;;;;;;;18.88;11.18;;;128.50;1740.80;;;;;;5093707;28;20024;-65
2021/12/09 03:51:51;;;;;;;19.60;10.90;;;128.40;1740.80;;;;;;5093808;28;20028;-65
2021/12/09 03:54:17;;;;;;;19.65;11.32;;;128.30;1740.80;;;;;;5093800;28;20476;-66
2021/12/09 03:56:43;;;;;;;17.15;10.27;;;128.20;1766.40;;;;;;5093696;28;20040;-62
2021/12/09 03:59:10;;;;;;;18.65;10.95;;;128.20;1740.80;;;;;;5093348;28;20044;-62
2021/12/09 04:01:37;;;;;;;18.40;11.02;;;128.20;1766.40;;;;;;5093649;28;20078;-62
2021/12/09 04:04:04;;;;;;;19.08;11.40;;;128.30;1843.20;;;;;;5093570;28;20377;-62
2021/12/09 04:06:30;;;;;;;19.05;11.05;;;128.30;1920.00;;;;;;5093692;28;20128;-62
2021/12/09 04:08:58;;;;;;;19.25;11.10;;;128.50;1843.20;;;;;;5093781;28;20091;-62
2021/12/09 04:11:24;;;;;;;21.52;10.80;;;128.50;1817.60;;;;;;5093809;28;20061;-62
2021/12/09 04:13:49;;;;;;;27.30;12.38;;;128.50;1766.40;;;;;;5096325;28;20523;-62
2021/12/09 04:16:15;;;;;;;23.85;11.88;;;128.40;1817.60;;;;;;5097315;28;20119;-62
2021/12/09 04:18:42;;;;;;;46.75;15.07;;;128.50;1843.20;;;;;;5097345;28;20025;-62
2021/12/09 04:21:08;;;;;;;30.27;12.68;;;128.80;2048.00;;;;;;5097566;28;20119;-62
2021/12/09 04:23:34;;;;;;;19.02;11.02;;;128.90;1894.40;;;;;;5097389;28;20575;-62
2021/12/09 04:26:00;;;;;;;19.75;11.15;;;128.90;1843.20;;;;;;5097206;28;20035;-62
2021/12/09 04:28:27;;;;;;;21.65;11.40;;;128.90;1843.20;;;;;;5097284;28;20016;-62
2021/12/09 04:30:52;;;;;;;20.92;11.90;;;128.80;1817.60;;;;;;5097029;28;20051;-66
2021/12/09 04:33:18;;;;;;;24.95;13.25;;;128.90;1843.20;;;;;;5097171;28;20059;-67
2021/12/09 04:35:44;;;;;;;34.60;14.18;;;128.90;1817.60;;;;;;5096924;28;20092;-66
2021/12/09 04:38:10;;;;;;;26.50;13.15;;;153.60;1817.60;;;;;;5096854;28;20411;-65
2021/12/09 04:40:36;;;;;;;24.08;12.27;;;153.60;1817.60;;;;;;5097083;28;20051;-65
2021/12/09 04:43:03;;;;;;;18.95;10.48;;;153.60;1817.60;;;;;;5096699;28;20501;-65
2021/12/09 04:45:30;;;;;;;24.33;12.93;;;153.60;1817.60;;;;;;5096865;28;20024;-62
2021/12/09 04:47:57;;;;;;;20.58;11.82;;;153.60;1817.60;;;;;;5096735;28;20028;-62
2021/12/09 04:50:23;;;;;;;22.67;12.82;;;153.70;1792.00;;;;;;5096433;28;20024;-62
2021/12/09 04:52:49;;;;;;;24.58;13.23;;;153.70;1817.60;;;;;;5096763;28;20468;-62
2021/12/09 04:55:15;;;;;;;21.80;12.45;;;153.60;1817.60;;;;;;5096894;28;20065;-61
2021/12/09 04:57:42;;;;;;;34.55;12.75;;;153.70;1817.60;;;;;;5096483;28;20110;-61
2021/12/09 05:00:12;;;;;;;22.23;12.07;;;153.70;1843.20;;;;;;5096601;28;20038;-61
2021/12/09 05:05:13;;;;;;;20.55;11.07;;;153.70;1817.60;;;;;;5096973;28;20028;-62
2021/12/09 05:07:39;;;;;;;20.05;11.20;;;153.80;1817.60;;;;;;5096768;28;20074;-62
2021/12/09 05:10:05;;;;;;;20.50;11.50;;;153.80;1817.60;;;;;;5096331;28;20114;-62
2021/12/09 05:12:31;;;;;;;19.67;11.50;;;153.80;1817.60;;;;;;5096414;28;20542;-62
2021/12/09 05:14:58;;;;;;;18.05;11.15;;;153.80;1817.60;;;;;;5096154;28;20055;-62
2021/12/09 05:17:23;;;;;;;16.48;10.20;;;153.80;1817.60;;;;;;5096136;28;20028;-63
2021/12/09 05:19:49;;;;;;;18.00;10.30;;;153.90;1817.60;;;;;;5096189;28;20035;-60
2021/12/09 05:22:16;;;;;;;17.75;10.20;;;153.80;1817.60;;;;;;5077780;28;20036;-60
2021/12/09 05:24:41;;;;;;;19.98;10.98;;;153.90;1817.60;;;;;;5095187;28;20099;-60
2021/12/09 05:27:09;;;;;;;17.33;10.60;;;153.90;1817.60;;;;;;5096288;28;20484;-59
2021/12/09 05:29:40;;;;;;;15.95;10.25;;;153.90;1792.00;;;;;;5095895;28;20028;-59
2021/12/09 05:32:08;;;;;;;16.25;9.55;;;153.90;1817.60;;;;;;5095892;28;20036;-59
2021/12/09 05:34:37;;;;;;;14.23;9.95;;;154.00;1792.00;;;;;;5096070;28;20165;-59
2021/12/09 05:37:07;;;;;;;17.80;9.38;;;154.00;1792.00;;;;;;5095746;28;20465;-60
2021/12/09 05:39:34;;;;;;;16.33;9.70;;;154.00;1792.00;;;;;;5096026;28;20054;-60
2021/12/09 05:42:00;;;;;;;15.77;10.23;;;154.00;1792.00;;;;;;5095869;28;20047;-59
2021/12/09 05:44:26;;;;;;;15.73;9.90;;;154.00;1792.00;;;;;;5095730;28;20048;-59
2021/12/09 05:46:52;;;;;;;16.52;10.35;;;154.00;1792.00;;;;;;5095795;28;20099;-59
2021/12/09 05:49:19;;;;;;;16.30;10.32;;;154.10;1792.00;;;;;;5095671;28;20024;-59
2021/12/09 05:51:45;;;;;;;13.45;8.90;;;154.10;1792.00;;;;;;5095458;28;20462;-59
2021/12/09 05:54:11;;;;;;;15.52;9.73;;;154.10;1792.00;;;;;;5095657;28;20034;-59
2021/12/09 05:56:37;;;;;;;13.38;9.07;;;154.10;1792.00;;;;;;5095367;28;20473;-59
2021/12/09 05:59:04;;;;;;;16.25;9.75;;;154.20;1766.40;;;;;;5095502;28;20016;-60
2021/12/09 06:01:30;;;;;;;13.65;8.63;;;154.10;1792.00;;;;;;5095409;28;20035;-60
2021/12/09 06:03:56;;;;;;;14.82;9.07;;;154.20;1766.40;;;;;;5095478;28;20024;-60
2021/12/09 06:06:22;;;;;;;15.95;9.55;;;154.10;1766.40;;;;;;5095322;28;20492;-60
2021/12/09 06:08:48;;;;;;;13.88;8.82;;;154.20;1792.00;;;;;;5095182;28;20028;-59
2021/12/09 06:11:14;;;;;;;18.80;8.90;;;154.20;1766.40;;;;;;5094947;28;20097;-60
2021/12/09 06:13:40;;;;;;;12.98;7.95;;;154.20;1766.40;;;;;;5095013;28;20469;-59
2021/12/09 06:16:07;;;;;;;12.70;8.73;;;154.20;1766.40;;;;;;5095221;28;20110;-60
2021/12/09 06:18:34;;;;;;;13.40;8.57;;;154.20;1766.40;;;;;;5095826;28;20389;-60
2021/12/09 06:21:00;;;;;;;11.63;8.32;;;154.20;1766.40;;;;;;5095184;28;20028;-59
2021/12/09 06:23:25;;;;;;;13.02;7.80;;;154.30;1766.40;;;;;;5094792;28;20030;-59
2021/12/09 06:25:52;;;;;;;11.55;7.22;;;154.30;1766.40;;;;;;5095052;28;20028;-60
2021/12/09 06:28:18;;;;;;;13.60;8.05;;;154.30;1766.40;;;;;;5094823;28;20076;-59
2021/12/09 06:30:45;;;;;;;13.93;7.82;;;154.40;1766.40;;;;;;5094729;28;20027;-60
2021/12/09 06:33:12;;;;;;;12.20;7.57;;;154.40;1766.40;;;;;;5094880;28;20074;-59
2021/12/09 06:35:38;;;;;;;11.90;7.65;;;154.40;1766.40;;;;;;5094589;28;20040;-60
2021/12/09 06:38:05;;;;;;;16.23;8.55;;;154.40;1766.40;;;;;;5094914;28;20343;-60
2021/12/09 06:40:31;;;;;;;14.60;8.35;;;154.40;1766.40;;;;;;5094623;28;20043;-60
2021/12/09 06:42:57;;;;;;;13.57;8.90;;;154.40;1740.80;;;;;;5094418;28;20032;-59
2021/12/09 06:45:23;;;;;;;17.50;9.13;;;154.50;1740.80;;;;;;5094966;28;20024;-59
2021/12/09 06:47:50;;;;;;;12.93;8.10;;;154.50;1740.80;;;;;;5094442;28;20066;-60
2021/12/09 06:50:18;;;;;;;18.95;9.20;;;179.20;1740.80;;;;;;5094575;28;20027;-59
2021/12/09 06:52:44;;;;;;;16.38;9.07;;;179.20;1740.80;;;;;;5094663;28;20099;-59
2021/12/09 06:55:12;;;;;;;14.23;9.65;;;179.20;1766.40;;;;;;5094635;28;20509;-60
2021/12/09 06:57:38;;;;;;;17.15;9.45;;;179.20;1740.80;;;;;;5094316;28;20065;-58
2021/12/09 07:00:08;;;;;;;16.20;9.63;;;179.20;1766.40;;;;;;5094376;28;20028;-59
2021/12/09 07:02:35;;;;;;;18.38;10.68;;;179.20;1740.80;;;;;;5089899;28;20501;-60
2021/12/09 07:05:01;;;;;;;16.80;10.20;;;179.20;1740.80;;;;;;5079085;28;20116;-60
2021/12/09 07:07:27;;;;;;;17.25;10.05;;;179.20;1740.80;;;;;;5082977;28;20020;-60
2021/12/09 07:09:53;;;;;;;18.38;9.00;;;179.30;1740.80;;;;;;5084434;28;20072;-60
2021/12/09 07:12:19;;;;;;;15.68;8.93;;;179.30;1740.80;;;;;;5082931;28;20017;-58
2021/12/09 07:14:45;;;;;;;16.60;8.77;;;179.30;1715.20;;;;;;5082894;28;20020;-60
2021/12/09 07:17:11;;;;;;;13.70;8.40;;;179.30;1740.80;;;;;;5084212;28;20035;-59
2021/12/09 07:19:38;;;;;;;15.68;8.18;;;179.30;1740.80;;;;;;5082745;28;20106;-60
2021/12/09 07:22:04;;;;;;;19.60;12.07;;;179.30;1740.80;;;;;;5080458;28;20027;-60
2021/12/09 07:24:30;;;;;;;28.70;16.27;;;179.30;1740.80;;;;;;5077355;28;20481;-60
2021/12/09 07:26:57;;;;;;;19.23;12.25;;;179.30;1740.80;;;;;;5094132;28;20035;-59
2021/12/09 07:29:23;;;;;;;16.10;10.95;;;179.30;1740.80;;;;;;5081929;28;20059;-76
2021/12/09 07:31:49;;;;;;;14.65;9.85;;;179.40;1740.80;;;;;;5073814;28;20050;-67
2021/12/09 07:34:16;;;;;;;14.07;8.77;;;179.40;1740.80;;;;;;5073498;28;20033;-67
2021/12/09 07:36:43;;;;;;;16.85;10.18;;;179.40;1740.80;;;;;;5086899;28;20473;-68
2021/12/09 07:39:09;;;;;;;18.77;11.43;;;179.40;1715.20;;;;;;5093512;28;20024;-61
2021/12/09 07:41:35;;;;;;;20.63;12.98;;;179.40;1740.80;;;;;;5093877;28;20032;-61
2021/12/09 07:44:05;;;;;;;25.98;15.52;;;179.50;1740.80;;;;;;5093731;28;20039;-60
2021/12/09 07:46:32;;;;;;;24.23;14.02;;;179.50;1715.20;;;;;;5093590;28;20032;-60
2021/12/09 07:48:58;;;;;;;21.70;12.60;;;179.40;1740.80;;;;;;5096763;28;20354;-61
2021/12/09 07:51:24;;;;;;;22.13;13.10;;;179.50;1715.20;;;;;;5098109;28;20028;-61
2021/12/09 07:53:50;;;;;;;17.77;11.55;;;179.50;1715.20;;;;;;5097852;28;20107;-60
2021/12/09 07:56:16;;;;;;;19.85;11.60;;;179.50;1715.20;;;;;;5098105;28;20028;-61
2021/12/09 07:58:42;;;;;;;23.83;13.35;;;179.50;1740.80;;;;;;5097811;28;20047;-61
2021/12/09 08:01:08;;;;;;;17.02;10.32;;;179.50;1740.80;;;;;;5097721;28;20024;-60
2021/12/09 08:03:34;;;;;;;16.05;10.25;;;179.50;1715.20;;;;;;5097838;28;20131;-61
2021/12/09 08:05:59;;;;;;;18.50;11.57;;;179.50;1715.20;;;;;;5097596;28;20028;-61
2021/12/09 08:08:25;;;;;;;21.17;11.88;;;179.50;1740.80;;;;;;5097241;28;20031;-61
2021/12/09 08:10:51;;;;;;;17.25;10.75;;;179.60;1740.80;;;;;;5097708;28;20032;-61
2021/12/09 08:13:17;;;;;;;13.90;9.57;;;179.60;1715.20;;;;;;5097419;28;20081;-61
2021/12/09 08:15:48;;;;;;;15.38;7.93;;;179.60;1715.20;;;;;;5097403;28;20062;-61
2021/12/09 08:18:27;;;;;;;13.30;8.02;;;179.60;1715.20;;;;;;5097481;28;20028;-60
2021/12/09 08:20:56;;;;;;;15.38;9.52;;;179.60;1740.80;;;;;;5097497;28;20035;-60
2021/12/09 08:23:22;;;;;;;18.92;10.43;;;179.60;1740.80;;;;;;5097417;28;20069;-61
2021/12/09 08:25:48;;;;;;;23.42;9.68;;;179.60;1740.80;;;;;;5097100;28;20024;-61
2021/12/09 08:28:15;;;;;;;17.15;9.77;;;179.60;1740.80;;;;;;5097216;28;20059;-61
2021/12/09 08:30:40;;;;;;;16.52;9.80;;;179.70;1740.80;;;;;;5096987;28;20363;-61
2021/12/09 08:33:07;;;;;;;15.07;9.52;;;179.70;1740.80;;;;;;5097319;28;20027;-60
2021/12/09 08:35:35;;;;;;;19.60;9.68;;;179.70;1740.80;;;;;;5097127;28;20377;-61
2021/12/09 08:38:02;;;;;;;15.30;9.82;;;179.80;1715.20;;;;;;5096949;28;20381;-61
2021/12/09 08:40:28;;;;;;;15.00;9.05;;;179.80;1715.20;;;;;;5096904;28;20039;-61
2021/12/09 08:42:54;;;;;;;12.88;8.27;;;179.80;1715.20;;;;;;5084934;28;20057;-61
2021/12/09 08:45:20;;;;;;;12.18;7.97;;;179.80;1715.20;;;;;;5076703;28;20029;-60
2021/12/09 08:47:47;;;;;;;13.13;7.55;;;179.90;1715.20;;;;;;5076734;28;20039;-61
2021/12/09 08:50:17;;;;;;;13.05;7.85;;;179.90;1715.20;;;;;;5076700;28;20024;-61
2021/12/09 08:52:42;;;;;;;16.55;8.38;;;179.90;1715.20;;;;;;5076507;28;20028;-60
2021/12/09 08:55:09;;;;;;;13.30;8.55;;;179.90;1715.20;;;;;;5076495;28;20045;-61
2021/12/09 08:57:37;;;;;;;16.58;9.40;;;179.90;1715.20;;;;;;5076788;28;20025;-61
2021/12/09 09:00:11;;;;;;;19.80;11.23;;;179.90;1715.20;;;;;;5076102;28;20076;-61
2021/12/09 09:02:41;;;;;;;22.35;12.15;;;180.00;1715.20;;;;;;5076440;28;20031;-61
2021/12/09 09:05:11;;;;;;;27.98;13.23;;;180.00;1715.20;;;;;;5076132;28;20031;-61
2021/12/09 09:07:38;;;;;;;21.60;12.02;;;180.00;1715.20;;;;;;5076206;28;20028;-61
2021/12/09 09:10:06;;;;;;;17.05;9.93;;;180.00;1715.20;;;;;;5076167;28;20466;-61
2021/12/09 09:12:33;;;;;;;19.33;9.57;;;180.00;1715.20;;;;;;5076628;28;20427;-61
2021/12/09 09:15:00;;;;;;;14.55;9.13;;;180.00;1715.20;;;;;;5075836;28;20024;-60
2021/12/09 09:17:26;;;;;;;13.05;8.27;;;180.10;1715.20;;;;;;5076036;28;20794;-61
2021/12/09 09:19:52;;;;;;;14.02;8.90;;;180.10;1715.20;;;;;;5075937;28;20031;-60
2021/12/09 09:22:18;;;;;;;15.00;8.75;;;180.10;1715.20;;;;;;5075831;28;20474;-61
2021/12/09 09:24:44;;;;;;;15.32;9.85;;;180.10;1715.20;;;;;;5076174;28;20059;-60
2021/12/09 09:27:10;;;;;;;18.92;10.43;;;180.10;1715.20;;;;;;5076051;28;20485;-61
2021/12/09 09:29:39;;;;;;;15.93;8.93;;;204.80;1715.20;;;;;;5075619;28;20028;-61
2021/12/09 09:32:05;;;;;;;23.05;12.95;;;204.80;1715.20;;;;;;5076214;28;20032;-61
2021/12/09 09:34:31;;;;;;;32.67;16.55;;;204.80;1715.20;;;;;;5075661;28;20028;-60
2021/12/09 09:36:57;;;;;;;34.03;17.95;;;204.80;1715.20;;;;;;5075277;28;20040;-61
2021/12/09 09:39:28;;;;;;;49.55;19.67;;;204.80;1715.20;;;;;;5075927;28;20024;-60
2021/12/09 09:42:00;;;;;;;51.60;21.23;;;204.80;1715.20;;;;;;5079013;28;20048;-60
2021/12/09 09:44:44;;;;;;;60.70;23.95;;;204.90;1715.20;;;;;;5095780;28;20419;-60
2021/12/09 09:47:10;;;;;;;45.93;21.53;;;204.90;1715.20;;;;;;5095888;28;20103;-61
2021/12/09 09:49:37;;;;;;;51.28;22.27;;;204.90;1740.80;;;;;;5095811;28;20394;-60
2021/12/09 09:52:03;;;;;;;53.58;22.00;;;204.90;1715.20;;;;;;5095823;28;20515;-61
2021/12/09 09:54:28;;;;;;;40.08;18.17;;;205.00;1715.20;;;;;;5095827;28;20028;-62
2021/12/09 09:56:54;;;;;;;33.60;15.50;;;205.00;1715.20;;;;;;5095341;28;20032;-60
2021/12/09 09:59:20;;;;;;;36.15;16.23;;;205.00;1715.20;;;;;;5095550;28;20016;-61
2021/12/09 10:01:52;;;;;;;49.55;19.70;;;205.00;1740.80;;;;;;5095411;28;20024;-60
2021/12/09 10:07:01;;;;;;;33.50;16.25;;;205.00;1740.80;;;;;;5095585;28;20024;-60
2021/12/09 10:09:27;;;;;;;31.55;15.02;;;205.00;1740.80;;;;;;5095298;28;20036;-61
2021/12/09 10:11:56;;;;;;;27.90;14.35;;;205.00;1740.80;;;;;;5094545;28;20020;-60
2021/12/09 10:14:26;;;;;;;27.48;13.90;;;205.00;1740.80;;;;;;5095041;28;20385;-61
2021/12/09 10:17:04;;;;;;;22.13;11.73;;;205.00;1740.80;;;;;;5077232;28;20078;-61
2021/12/09 10:19:31;;;;;;;19.25;10.18;;;205.10;1740.80;;;;;;5095310;28;20103;-60
2021/12/09 10:22:11;;;;;;;20.75;10.73;;;205.10;1740.80;;;;;;5095104;28;20069;-60
2021/12/09 10:24:41;;;;;;;23.65;10.95;;;205.10;1740.80;;;;;;5094911;28;20024;-61
2021/12/09 10:27:08;;;;;;;16.98;9.38;;;205.10;1740.80;;;;;;5094552;28;20051;-60
2021/12/09 10:29:40;;;;;;;17.77;9.13;;;205.10;1740.80;;;;;;5094800;28;20099;-60
2021/12/09 10:32:11;;;;;;;15.95;8.95;;;205.10;1740.80;;;;;;5094793;28;20058;-61
2021/12/09 10:34:43;;;;;;;15.75;8.25;;;205.10;1740.80;;;;;;5094796;28;20050;-61
2021/12/09 10:37:16;;;;;;;14.50;8.52;;;205.10;1740.80;;;;;;5094524;28;20398;-61
2021/12/09 10:39:53;;;;;;;16.30;8.50;;;205.20;1740.80;;;;;;5094775;28;20027;-61
2021/12/09 10:42:25;;;;;;;22.88;8.80;;;205.20;1740.80;;;;;;5094488;28;20048;-60
2021/12/09 10:45:02;;;;;;;18.60;9.25;;;205.20;1740.80;;;;;;5094479;28;20073;-61
2021/12/09 10:48:21;;;;;;;14.02;8.23;;;205.20;1740.80;;;;;;5094826;28;20170;-61
2021/12/09 10:50:37;;;;;;;11.98;7.13;;;205.20;1740.80;;;;;;5086155;28;20043;-61
2021/12/09 10:53:17;;;;;;;17.67;8.13;;;205.20;1740.80;;;;;;5094467;28;20028;-61
2021/12/09 10:55:43;;;;;;;19.05;10.05;;;205.20;1740.80;;;;;;5094301;28;20036;-61
2021/12/09 10:58:12;;;;;;;16.10;9.32;;;205.20;1740.80;;;;;;5094445;28;20040;-61
2021/12/09 11:00:43;;;;;;;16.67;9.20;;;205.20;1740.80;;;;;;5094401;28;20031;-60
2021/12/09 11:03:16;;;;;;;15.18;9.05;;;205.30;1740.80;;;;;;5094229;28;20032;-60
2021/12/09 11:06:07;;;;;;;17.88;9.18;;;205.30;1740.80;;;;;;5094141;28;20138;-61
2021/12/09 11:08:34;;;;;;;14.75;9.35;;;205.30;1740.80;;;;;;5012482;28;20042;-60
2021/12/09 11:11:29;;;;;;;16.38;9.27;;;205.30;1740.80;;;;;;5012510;28;20041;-61
2021/12/09 11:13:57;;;;;;;13.75;8.55;;;205.30;1715.20;;;;;;5012259;28;20120;-61
2021/12/09 11:16:26;;;;;;;16.65;9.18;;;205.30;1715.20;;;;;;5012133;28;20622;-69
2021/12/09 11:19:09;;;;;;;18.67;10.63;;;205.30;1715.20;;;;;;5012384;28;21209;-69
2021/12/09 11:21:40;;;;;;;20.88;10.77;;;205.30;1715.20;;;;;;5011619;28;20025;-69
2021/12/09 11:24:15;;;;;;;15.85;9.77;;;205.40;1715.20;;;;;;5010015;28;20057;-69
2021/12/09 11:29:12;;;;;;;23.83;13.23;;;205.40;1715.20;;;;;;5010433;28;20406;-69
2021/12/09 11:35:09;;;;;;;14.23;8.05;;;205.40;1715.20;;;;;;4972272;28;20038;-68
2021/12/09 11:37:37;;;;;;;11.27;7.00;;;205.40;1715.20;;;;;;4973080;28;20043;-69
2021/12/09 11:40:21;;;;;;;11.48;6.80;;;205.40;1715.20;;;;;;4973300;28;20037;-70
2021/12/09 11:42:55;;;;;;;12.88;6.80;;;205.40;1715.20;;;;;;4972626;28;20099;-65
2021/12/09 11:45:28;;;;;;;13.93;7.13;;;205.40;1715.20;;;;;;4997336;28;20037;-68
2021/12/09 11:47:55;;;;;;;11.85;7.38;;;205.40;1715.20;;;;;;5038940;28;20028;-64
2021/12/09 11:50:24;;;;;;;13.00;7.55;;;205.50;1689.60;;;;;;5041931;28;20475;-63
2021/12/09 11:52:52;;;;;;;11.15;7.28;;;205.50;1689.60;;;;;;5040629;28;20021;-69
2021/12/09 11:55:21;;;;;;;13.57;8.02;;;205.50;1689.60;;;;;;5039747;28;20139;-70
2021/12/09 11:57:58;;;;;;;14.60;8.40;;;205.50;1689.60;;;;;;5041244;28;20039;-69
2021/12/09 12:12:40;;;;;;;9.80;6.55;;;205.60;1664.00;;;;;;5008361;28;20526;-59
2021/12/09 12:21:11;;;;;;;10.23;7.03;;;205.70;1664.00;;;;;;5009999;28;20435;-61
2021/12/09 12:23:45;;;;;;;8.52;6.00;;;205.70;1664.00;;;;;;5006932;28;20033;-61
2021/12/09 12:39:34;;;;;;;11.80;7.47;;;230.40;1664.00;;;;;;5015003;28;20077;-61
2021/12/09 12:42:11;;;;;;;10.68;7.25;;;230.40;1664.00;;;;;;5014778;28;20458;-61
2021/12/09 12:45:45;;;;;;;11.15;6.78;;;230.40;1664.00;;;;;;5096662;28;20477;-61
2021/12/09 12:51:10;;;;;;;17.48;8.93;;;230.40;1664.00;;;;;;5096902;28;20165;-61
2021/12/09 12:53:43;;;;;;;12.30;7.90;;;230.50;1638.40;;;;;;5096848;28;20024;-61